Terminal Aerodrome Forecast
Issued by NWS Sterling, VA

Home | Current Version | Previous Version | Text Only | Print | Product List | Glossary On
Versions: 1 2 3 4 5 6 7 8 9 10 11 12 13 14 15 16 17 18 19 20 21
000
FTUS41 KLWX 272320
TAFBWI
TAF
KBWI 272320Z 2800/2906 15004KT P6SM SKC
     FM281000 VRB03KT P6SM BKN110
     FM281500 08007KT P6SM BKN100
     FM282100 11008KT 4SM SHRA BR OVC050
     FM290000 10009KT 3SM SHRA BR OVC060=

USA.gov is the U.S. government's official web portal to all federal, state and local government web resources and services.